sensor_id;sensor_type;location;lat;lon;timestamp;temperature;humidity
12115;DHT22;6121;49.810;6.418;2024-01-06T00:44:43;5.70;99.90
12115;DHT22;6121;49.810;6.418;2024-01-06T00:49:37;5.60;99.90
12115;DHT22;6121;49.810;6.418;2024-01-06T00:54:29;5.60;99.90
12115;DHT22;6121;49.810;6.418;2024-01-06T00:56:55;5.50;99.90
12115;DHT22;6121;49.810;6.418;2024-01-06T00:59:21;5.60;99.90
12115;DHT22;6121;49.810;6.418;2024-01-06T02:05:23;5.60;99.90
12115;DHT22;6121;49.810;6.418;2024-01-06T02:07:49;5.70;99.90
12115;DHT22;6121;49.810;6.418;2024-01-06T02:15:09;5.60;99.90
12115;DHT22;6121;49.810;6.418;2024-01-06T02:17:35;5.50;99.90
12115;DHT22;6121;49.810;6.418;2024-01-06T02:20:01;5.80;99.90
12115;DHT22;6121;49.810;6.418;2024-01-06T02:22:27;5.70;99.90
12115;DHT22;6121;49.810;6.418;2024-01-06T02:24:53;5.60;99.90
12115;DHT22;6121;49.810;6.418;2024-01-06T02:27:19;5.70;99.90
12115;DHT22;6121;49.810;6.418;2024-01-06T02:29:45;5.70;99.90
12115;DHT22;6121;49.810;6.418;2024-01-06T02:32:11;5.60;99.90
12115;DHT22;6121;49.810;6.418;2024-01-06T02:34:37;5.70;99.90
12115;DHT22;6121;49.810;6.418;2024-01-06T02:37:04;5.80;99.90
12115;DHT22;6121;49.810;6.418;2024-01-06T02:41:56;5.70;99.90
12115;DHT22;6121;49.810;6.418;2024-01-06T02:44:22;6.00;99.90
12115;DHT22;6121;49.810;6.418;2024-01-06T02:49:14;5.80;99.90
12115;DHT22;6121;49.810;6.418;2024-01-06T02:51:40;5.80;99.90
12115;DHT22;6121;49.810;6.418;2024-01-06T02:54:06;5.80;99.90
12115;DHT22;6121;49.810;6.418;2024-01-06T02:56:31;5.80;99.90
12115;DHT22;6121;49.810;6.418;2024-01-06T02:58:57;5.80;99.90
12115;DHT22;6121;49.810;6.418;2024-01-06T03:03:49;5.80;99.90
12115;DHT22;6121;49.810;6.418;2024-01-06T03:06:15;6.00;99.90
12115;DHT22;6121;49.810;6.418;2024-01-06T03:11:07;5.90;99.90
12115;DHT22;6121;49.810;6.418;2024-01-06T03:16:04;5.90;99.90
12115;DHT22;6121;49.810;6.418;2024-01-06T03:18:32;5.90;99.90
12115;DHT22;6121;49.810;6.418;2024-01-06T03:20:58;5.90;99.90
12115;DHT22;6121;49.810;6.418;2024-01-06T03:25:51;5.90;99.90
12115;DHT22;6121;49.810;6.418;2024-01-06T03:28:16;5.90;99.90
12115;DHT22;6121;49.810;6.418;2024-01-06T03:30:42;5.90;99.90
12115;DHT22;6121;49.810;6.418;2024-01-06T03:33:08;6.00;99.90
12115;DHT22;6121;49.810;6.418;2024-01-06T03:35:34;5.90;99.90
12115;DHT22;6121;49.810;6.418;2024-01-06T03:38:00;6.20;99.90
12115;DHT22;6121;49.810;6.418;2024-01-06T03:40:26;6.40;99.90
12115;DHT22;6121;49.810;6.418;2024-01-06T03:45:21;5.90;99.90
12115;DHT22;6121;49.810;6.418;2024-01-06T03:47:48;6.10;99.90
12115;DHT22;6121;49.810;6.418;2024-01-06T03:52:43;6.00;99.90
12115;DHT22;6121;49.810;6.418;2024-01-06T03:55:09;6.00;99.90
12115;DHT22;6121;49.810;6.418;2024-01-06T04:00:02;5.90;99.90
12115;DHT22;6121;49.810;6.418;2024-01-06T04:02:30;6.00;99.90
12115;DHT22;6121;49.810;6.418;2024-01-06T04:04:56;6.30;99.90
12115;DHT22;6121;49.810;6.418;2024-01-06T04:07:22;6.10;99.90
12115;DHT22;6121;49.810;6.418;2024-01-06T04:09:47;6.00;99.90
12115;DHT22;6121;49.810;6.418;2024-01-06T04:12:13;6.00;99.90
12115;DHT22;6121;49.810;6.418;2024-01-06T04:17:05;6.00;99.90
12115;DHT22;6121;49.810;6.418;2024-01-06T04:19:31;6.00;99.90
12115;DHT22;6121;49.810;6.418;2024-01-06T04:21:58;6.00;99.90
12115;DHT22;6121;49.810;6.418;2024-01-06T04:24:24;6.10;99.90
12115;DHT22;6121;49.810;6.418;2024-01-06T04:26:50;6.10;99.90
12115;DHT22;6121;49.810;6.418;2024-01-06T04:31:42;6.10;99.90
12115;DHT22;6121;49.810;6.418;2024-01-06T04:36:35;6.40;99.90
12115;DHT22;6121;49.810;6.418;2024-01-06T04:39:01;6.10;99.90
12115;DHT22;6121;49.810;6.418;2024-01-06T04:43:53;6.20;99.90
12115;DHT22;6121;49.810;6.418;2024-01-06T04:48:47;6.10;99.90
12115;DHT22;6121;49.810;6.418;2024-01-06T04:53:42;6.20;99.90
12115;DHT22;6121;49.810;6.418;2024-01-06T04:56:08;6.60;99.90
12115;DHT22;6121;49.810;6.418;2024-01-06T05:01:01;6.30;99.90
12115;DHT22;6121;49.810;6.418;2024-01-06T05:03:27;6.30;99.90
12115;DHT22;6121;49.810;6.418;2024-01-06T05:05:53;6.30;99.90
12115;DHT22;6121;49.810;6.418;2024-01-06T05:08:19;6.20;99.90
12115;DHT22;6121;49.810;6.418;2024-01-06T05:10:45;6.20;99.90
12115;DHT22;6121;49.810;6.418;2024-01-06T05:13:14;6.20;99.90
12115;DHT22;6121;49.810;6.418;2024-01-06T05:15:40;6.30;99.90
12115;DHT22;6121;49.810;6.418;2024-01-06T05:18:06;6.20;99.90
12115;DHT22;6121;49.810;6.418;2024-01-06T05:25:24;6.20;99.90
12115;DHT22;6121;49.810;6.418;2024-01-06T05:30:16;6.40;99.90
12115;DHT22;6121;49.810;6.418;2024-01-06T05:32:43;6.30;99.90
12115;DHT22;6121;49.810;6.418;2024-01-06T05:35:10;6.50;99.90
12115;DHT22;6121;49.810;6.418;2024-01-06T05:37:35;6.30;99.90
12115;DHT22;6121;49.810;6.418;2024-01-06T05:40:01;6.30;99.90
12115;DHT22;6121;49.810;6.418;2024-01-06T05:42:29;6.40;99.90
12115;DHT22;6121;49.810;6.418;2024-01-06T05:44:55;6.30;99.90
12115;DHT22;6121;49.810;6.418;2024-01-06T05:47:21;6.30;99.90
12115;DHT22;6121;49.810;6.418;2024-01-06T05:49:46;6.10;99.90
12115;DHT22;6121;49.810;6.418;2024-01-06T05:52:12;6.30;99.90
12115;DHT22;6121;49.810;6.418;2024-01-06T05:57:10;6.30;99.90
12115;DHT22;6121;49.810;6.418;2024-01-06T05:59:37;6.30;99.90
12115;DHT22;6121;49.810;6.418;2024-01-06T06:02:03;6.30;99.90
12115;DHT22;6121;49.810;6.418;2024-01-06T06:04:29;6.40;99.90
12115;DHT22;6121;49.810;6.418;2024-01-06T06:06:55;6.30;99.90
12115;DHT22;6121;49.810;6.418;2024-01-06T06:11:47;6.30;99.90
12115;DHT22;6121;49.810;6.418;2024-01-06T06:14:14;6.20;99.90
12115;DHT22;6121;49.810;6.418;2024-01-06T06:16:40;6.20;99.90
12115;DHT22;6121;49.810;6.418;2024-01-06T06:19:05;6.20;99.90
12115;DHT22;6121;49.810;6.418;2024-01-06T06:21:33;6.30;99.90
12115;DHT22;6121;49.810;6.418;2024-01-06T06:24:00;6.20;99.90
12115;DHT22;6121;49.810;6.418;2024-01-06T06:26:26;6.30;99.90
12115;DHT22;6121;49.810;6.418;2024-01-06T06:28:52;6.20;99.90
12115;DHT22;6121;49.810;6.418;2024-01-06T06:31:18;6.20;99.90
12115;DHT22;6121;49.810;6.418;2024-01-06T06:33:44;6.20;99.90
12115;DHT22;6121;49.810;6.418;2024-01-06T06:38:37;6.30;99.90
12115;DHT22;6121;49.810;6.418;2024-01-06T06:41:03;6.30;99.90
12115;DHT22;6121;49.810;6.418;2024-01-06T06:53:14;6.10;99.90
12115;DHT22;6121;49.810;6.418;2024-01-06T06:55:40;6.40;99.90
12115;DHT22;6121;49.810;6.418;2024-01-06T06:58:06;6.30;99.90
12115;DHT22;6121;49.810;6.418;2024-01-06T07:00:32;6.30;99.90
12115;DHT22;6121;49.810;6.418;2024-01-06T07:02:58;6.30;99.90
12115;DHT22;6121;49.810;6.418;2024-01-06T07:05:24;6.40;99.90
12115;DHT22;6121;49.810;6.418;2024-01-06T07:07:50;6.30;99.90
12115;DHT22;6121;49.810;6.418;2024-01-06T07:10:16;6.30;99.90
12115;DHT22;6121;49.810;6.418;2024-01-06T07:12:41;6.40;99.90
12115;DHT22;6121;49.810;6.418;2024-01-06T07:15:08;6.20;99.90
12115;DHT22;6121;49.810;6.418;2024-01-06T07:17:35;6.20;99.90
12115;DHT22;6121;49.810;6.418;2024-01-06T07:20:02;6.20;99.90
12115;DHT22;6121;49.810;6.418;2024-01-06T07:22:27;6.10;99.90
12115;DHT22;6121;49.810;6.418;2024-01-06T07:24:53;6.20;99.90
12115;DHT22;6121;49.810;6.418;2024-01-06T07:27:19;6.20;99.90
12115;DHT22;6121;49.810;6.418;2024-01-06T07:29:45;6.40;99.90
12115;DHT22;6121;49.810;6.418;2024-01-06T07:32:11;6.30;99.90
12115;DHT22;6121;49.810;6.418;2024-01-06T07:37:03;6.30;99.90
12115;DHT22;6121;49.810;6.418;2024-01-06T07:39:29;6.20;99.90
12115;DHT22;6121;49.810;6.418;2024-01-06T07:44:21;6.20;99.90
12115;DHT22;6121;49.810;6.418;2024-01-06T07:46:51;6.30;99.90
12115;DHT22;6121;49.810;6.418;2024-01-06T07:49:17;6.30;99.90
12115;DHT22;6121;49.810;6.418;2024-01-06T07:51:43;6.30;99.90
12115;DHT22;6121;49.810;6.418;2024-01-06T07:56:35;6.30;99.90
12115;DHT22;6121;49.810;6.418;2024-01-06T08:01:28;6.20;99.90
12115;DHT22;6121;49.810;6.418;2024-01-06T08:03:54;6.20;99.90
12115;DHT22;6121;49.810;6.418;2024-01-06T08:06:19;6.20;99.90
12115;DHT22;6121;49.810;6.418;2024-01-06T08:08:45;6.20;99.90
12115;DHT22;6121;49.810;6.418;2024-01-06T08:11:11;6.30;99.90
12115;DHT22;6121;49.810;6.418;2024-01-06T08:13:37;6.30;99.90
12115;DHT22;6121;49.810;6.418;2024-01-06T08:16:04;6.30;99.90
12115;DHT22;6121;49.810;6.418;2024-01-06T08:18:30;6.30;99.90
12115;DHT22;6121;49.810;6.418;2024-01-06T08:20:56;6.30;99.90
12115;DHT22;6121;49.810;6.418;2024-01-06T08:25:48;6.30;99.90
12115;DHT22;6121;49.810;6.418;2024-01-06T08:28:14;6.30;99.90
12115;DHT22;6121;49.810;6.418;2024-01-06T08:30:44;6.40;99.90
12115;DHT22;6121;49.810;6.418;2024-01-06T08:33:10;6.30;99.90
12115;DHT22;6121;49.810;6.418;2024-01-06T08:35:36;6.50;99.90
12115;DHT22;6121;49.810;6.418;2024-01-06T08:38:07;6.40;99.90
12115;DHT22;6121;49.810;6.418;2024-01-06T08:45:25;6.40;99.90
12115;DHT22;6121;49.810;6.418;2024-01-06T08:47:51;6.40;99.90
12115;DHT22;6121;49.810;6.418;2024-01-06T08:50:17;6.40;99.90
12115;DHT22;6121;49.810;6.418;2024-01-06T08:52:43;6.50;99.90
12115;DHT22;6121;49.810;6.418;2024-01-06T08:55:09;6.50;99.90
12115;DHT22;6121;49.810;6.418;2024-01-06T08:57:34;6.50;99.90
12115;DHT22;6121;49.810;6.418;2024-01-06T09:00:00;6.50;99.90
12115;DHT22;6121;49.810;6.418;2024-01-06T09:02:26;6.50;99.90
12115;DHT22;6121;49.810;6.418;2024-01-06T09:04:52;6.50;99.90
12115;DHT22;6121;49.810;6.418;2024-01-06T09:09:44;6.50;99.90
12115;DHT22;6121;49.810;6.418;2024-01-06T09:17:03;6.70;99.90
12115;DHT22;6121;49.810;6.418;2024-01-06T09:19:30;6.70;99.90
12115;DHT22;6121;49.810;6.418;2024-01-06T09:21:56;6.70;99.90
12115;DHT22;6121;49.810;6.418;2024-01-06T09:29:17;6.70;99.90
12115;DHT22;6121;49.810;6.418;2024-01-06T09:31:43;6.80;99.90
12115;DHT22;6121;49.810;6.418;2024-01-06T09:34:11;6.80;99.90
12115;DHT22;6121;49.810;6.418;2024-01-06T09:36:37;6.80;99.90
12115;DHT22;6121;49.810;6.418;2024-01-06T09:39:04;6.70;99.90
12115;DHT22;6121;49.810;6.418;2024-01-06T09:41:31;6.90;99.90
12115;DHT22;6121;49.810;6.418;2024-01-06T09:46:29;6.90;99.90
12115;DHT22;6121;49.810;6.418;2024-01-06T09:48:56;6.90;99.90
12115;DHT22;6121;49.810;6.418;2024-01-06T09:53:56;7.00;99.90
12115;DHT22;6121;49.810;6.418;2024-01-06T09:56:27;7.20;99.90
12115;DHT22;6121;49.810;6.418;2024-01-06T09:58:54;6.90;99.90
12115;DHT22;6121;49.810;6.418;2024-01-06T10:01:20;6.90;99.90
12115;DHT22;6121;49.810;6.418;2024-01-06T10:06:16;7.00;99.90
12115;DHT22;6121;49.810;6.418;2024-01-06T10:08:52;7.10;99.90
12115;DHT22;6121;49.810;6.418;2024-01-06T10:11:19;7.00;99.90
12115;DHT22;6121;49.810;6.418;2024-01-06T10:13:49;7.00;99.90
12115;DHT22;6121;49.810;6.418;2024-01-06T10:16:15;7.00;99.90
12115;DHT22;6121;49.810;6.418;2024-01-06T10:18:41;7.20;99.90
12115;DHT22;6121;49.810;6.418;2024-01-06T10:21:08;7.20;99.90
12115;DHT22;6121;49.810;6.418;2024-01-06T10:23:34;7.20;99.90
12115;DHT22;6121;49.810;6.418;2024-01-06T10:28:27;7.20;99.90
12115;DHT22;6121;49.810;6.418;2024-01-06T10:33:23;7.40;99.90
12115;DHT22;6121;49.810;6.418;2024-01-06T10:35:50;7.40;99.90
12115;DHT22;6121;49.810;6.418;2024-01-06T10:40:58;7.70;99.90
12115;DHT22;6121;49.810;6.418;2024-01-06T10:43:28;7.60;99.90
12115;DHT22;6121;49.810;6.418;2024-01-06T10:46:01;7.60;99.90
12115;DHT22;6121;49.810;6.418;2024-01-06T10:51:01;7.60;99.90
12115;DHT22;6121;49.810;6.418;2024-01-06T10:53:28;7.60;99.90
12115;DHT22;6121;49.810;6.418;2024-01-06T10:55:55;7.60;99.90
12115;DHT22;6121;49.810;6.418;2024-01-06T11:00:48;7.90;99.90
12115;DHT22;6121;49.810;6.418;2024-01-06T11:05:41;7.80;99.90
12115;DHT22;6121;49.810;6.418;2024-01-06T11:08:09;7.80;99.90
12115;DHT22;6121;49.810;6.418;2024-01-06T11:13:12;8.00;99.90
12115;DHT22;6121;49.810;6.418;2024-01-06T11:15:46;8.00;99.90
12115;DHT22;6121;49.810;6.418;2024-01-06T11:18:34;8.10;99.90
12115;DHT22;6121;49.810;6.418;2024-01-06T11:24:14;8.20;99.90
12115;DHT22;6121;49.810;6.418;2024-01-06T11:29:10;8.10;99.90
12115;DHT22;6121;49.810;6.418;2024-01-06T11:31:37;8.10;99.90
12115;DHT22;6121;49.810;6.418;2024-01-06T11:34:16;7.90;99.90
12115;DHT22;6121;49.810;6.418;2024-01-06T11:39:36;7.90;99.90
12115;DHT22;6121;49.810;6.418;2024-01-06T11:42:05;7.80;99.90
12115;DHT22;6121;49.810;6.418;2024-01-06T11:44:38;7.80;99.90
12115;DHT22;6121;49.810;6.418;2024-01-06T11:47:05;7.70;99.90
12115;DHT22;6121;49.810;6.418;2024-01-06T11:51:58;7.80;99.90
12115;DHT22;6121;49.810;6.418;2024-01-06T11:54:24;7.60;99.90
12115;DHT22;6121;49.810;6.418;2024-01-06T11:56:50;7.60;99.90
12115;DHT22;6121;49.810;6.418;2024-01-06T12:06:42;7.60;99.90
12115;DHT22;6121;49.810;6.418;2024-01-06T12:09:10;7.90;99.90
12115;DHT22;6121;49.810;6.418;2024-01-06T12:11:40;7.60;99.90
12115;DHT22;6121;49.810;6.418;2024-01-06T12:14:06;7.60;99.90
12115;DHT22;6121;49.810;6.418;2024-01-06T12:16:32;7.70;99.90
12115;DHT22;6121;49.810;6.418;2024-01-06T12:18:59;7.20;99.90
12115;DHT22;6121;49.810;6.418;2024-01-06T12:26:41;7.30;99.90
12115;DHT22;6121;49.810;6.418;2024-01-06T12:29:07;7.20;99.90
12115;DHT22;6121;49.810;6.418;2024-01-06T12:31:33;7.10;99.90
12115;DHT22;6121;49.810;6.418;2024-01-06T12:33:59;7.00;99.90
12115;DHT22;6121;49.810;6.418;2024-01-06T12:38:54;7.00;99.90
12115;DHT22;6121;49.810;6.418;2024-01-06T12:41:22;7.10;99.90
12115;DHT22;6121;49.810;6.418;2024-01-06T12:43:48;7.10;99.90
12115;DHT22;6121;49.810;6.418;2024-01-06T12:46:14;7.10;99.90
12115;DHT22;6121;49.810;6.418;2024-01-06T12:48:41;7.10;99.90
12115;DHT22;6121;49.810;6.418;2024-01-06T12:53:33;7.20;99.90
12115;DHT22;6121;49.810;6.418;2024-01-06T12:58:25;7.00;99.90
12115;DHT22;6121;49.810;6.418;2024-01-06T13:00:50;7.00;99.90
12115;DHT22;6121;49.810;6.418;2024-01-06T13:03:16;7.00;99.90
12115;DHT22;6121;49.810;6.418;2024-01-06T13:05:42;6.90;99.90
12115;DHT22;6121;49.810;6.418;2024-01-06T13:08:08;6.80;99.90
12115;DHT22;6121;49.810;6.418;2024-01-06T13:10:34;6.70;99.90
12115;DHT22;6121;49.810;6.418;2024-01-06T13:13:02;6.70;99.90
12115;DHT22;6121;49.810;6.418;2024-01-06T13:17:54;6.30;99.90
12115;DHT22;6121;49.810;6.418;2024-01-06T13:20:20;6.60;99.90
12115;DHT22;6121;49.810;6.418;2024-01-06T13:25:12;6.60;99.90
12115;DHT22;6121;49.810;6.418;2024-01-06T13:27:38;6.60;99.90
12115;DHT22;6121;49.810;6.418;2024-01-06T13:30:05;6.70;99.90
12115;DHT22;6121;49.810;6.418;2024-01-06T13:37:31;6.50;99.90
12115;DHT22;6121;49.810;6.418;2024-01-06T13:42:23;6.40;99.90
12115;DHT22;6121;49.810;6.418;2024-01-06T13:44:49;6.50;99.90
12115;DHT22;6121;49.810;6.418;2024-01-06T13:49:41;6.60;99.90
12115;DHT22;6121;49.810;6.418;2024-01-06T13:52:07;6.60;99.90
12115;DHT22;6121;49.810;6.418;2024-01-06T13:54:35;6.60;99.90
12115;DHT22;6121;49.810;6.418;2024-01-06T13:57:01;6.50;99.90
12115;DHT22;6121;49.810;6.418;2024-01-06T14:09:14;6.40;99.90
12115;DHT22;6121;49.810;6.418;2024-01-06T14:14:06;6.40;99.90
12115;DHT22;6121;49.810;6.418;2024-01-06T14:16:32;6.40;99.90
12115;DHT22;6121;49.810;6.418;2024-01-06T14:21:24;6.40;99.90
12115;DHT22;6121;49.810;6.418;2024-01-06T14:23:50;6.40;99.90
12115;DHT22;6121;49.810;6.418;2024-01-06T14:26:17;6.40;99.90
12115;DHT22;6121;49.810;6.418;2024-01-06T14:28:46;6.30;99.90
12115;DHT22;6121;49.810;6.418;2024-01-06T14:31:12;6.40;99.90
12115;DHT22;6121;49.810;6.418;2024-01-06T14:33:38;6.40;99.90
12115;DHT22;6121;49.810;6.418;2024-01-06T14:36:04;6.40;99.90
12115;DHT22;6121;49.810;6.418;2024-01-06T14:38:30;6.40;99.90
12115;DHT22;6121;49.810;6.418;2024-01-06T14:43:22;6.40;99.90
12115;DHT22;6121;49.810;6.418;2024-01-06T14:45:48;6.40;99.90
12115;DHT22;6121;49.810;6.418;2024-01-06T14:48:14;6.50;99.90
12115;DHT22;6121;49.810;6.418;2024-01-06T14:50:40;6.40;99.90
12115;DHT22;6121;49.810;6.418;2024-01-06T14:55:32;6.30;99.90
12115;DHT22;6121;49.810;6.418;2024-01-06T15:02:52;6.30;99.90
12115;DHT22;6121;49.810;6.418;2024-01-06T15:05:18;6.30;99.90
12115;DHT22;6121;49.810;6.418;2024-01-06T15:07:44;6.30;99.90
12115;DHT22;6121;49.810;6.418;2024-01-06T15:10:10;6.40;99.90
12115;DHT22;6121;49.810;6.418;2024-01-06T15:12:38;6.50;99.90
12115;DHT22;6121;49.810;6.418;2024-01-06T15:17:37;6.20;99.90
12115;DHT22;6121;49.810;6.418;2024-01-06T15:20:04;6.40;99.90
12115;DHT22;6121;49.810;6.418;2024-01-06T15:24:57;6.20;99.90
12115;DHT22;6121;49.810;6.418;2024-01-06T15:27:22;6.20;99.90
12115;DHT22;6121;49.810;6.418;2024-01-06T15:29:48;6.10;99.90
12115;DHT22;6121;49.810;6.418;2024-01-06T15:32:14;6.10;99.90
12115;DHT22;6121;49.810;6.418;2024-01-06T15:34:40;6.20;99.90
12115;DHT22;6121;49.810;6.418;2024-01-06T15:39:32;6.10;99.90
12115;DHT22;6121;49.810;6.418;2024-01-06T15:41:58;6.00;99.90
12115;DHT22;6121;49.810;6.418;2024-01-06T15:44:24;6.10;99.90
12115;DHT22;6121;49.810;6.418;2024-01-06T15:49:17;6.10;99.90
12115;DHT22;6121;49.810;6.418;2024-01-06T15:51:46;6.10;99.90
12115;DHT22;6121;49.810;6.418;2024-01-06T15:54:12;6.10;99.90
12115;DHT22;6121;49.810;6.418;2024-01-06T15:56:41;6.10;99.90
12115;DHT22;6121;49.810;6.418;2024-01-06T15:59:06;6.00;99.90
12115;DHT22;6121;49.810;6.418;2024-01-06T16:01:33;6.00;99.90
12115;DHT22;6121;49.810;6.418;2024-01-06T16:03:59;5.80;99.90
12115;DHT22;6121;49.810;6.418;2024-01-06T16:08:53;5.90;99.90
12115;DHT22;6121;49.810;6.418;2024-01-06T16:13:46;6.00;99.90
12115;DHT22;6121;49.810;6.418;2024-01-06T16:16:12;6.00;99.90
12115;DHT22;6121;49.810;6.418;2024-01-06T16:18:42;5.90;99.90
12115;DHT22;6121;49.810;6.418;2024-01-06T16:23:34;5.90;99.90
12115;DHT22;6121;49.810;6.418;2024-01-06T16:25:59;6.00;99.90
12115;DHT22;6121;49.810;6.418;2024-01-06T16:30:52;5.60;99.90
12115;DHT22;6121;49.810;6.418;2024-01-06T16:33:19;5.80;99.90
12115;DHT22;6121;49.810;6.418;2024-01-06T16:35:44;6.30;99.90
12115;DHT22;6121;49.810;6.418;2024-01-06T16:38:13;5.70;99.90
12115;DHT22;6121;49.810;6.418;2024-01-06T16:40:39;5.90;99.90
12115;DHT22;6121;49.810;6.418;2024-01-06T16:43:04;5.90;99.90
12115;DHT22;6121;49.810;6.418;2024-01-06T16:45:30;5.80;99.90
12115;DHT22;6121;49.810;6.418;2024-01-06T16:47:57;5.70;99.90
12115;DHT22;6121;49.810;6.418;2024-01-06T16:50:23;6.20;99.90
12115;DHT22;6121;49.810;6.418;2024-01-06T16:52:52;5.70;99.90
12115;DHT22;6121;49.810;6.418;2024-01-06T16:55:18;5.70;99.90
12115;DHT22;6121;49.810;6.418;2024-01-06T17:02:39;5.50;99.90
12115;DHT22;6121;49.810;6.418;2024-01-06T17:05:06;5.60;99.90
12115;DHT22;6121;49.810;6.418;2024-01-06T17:07:34;5.40;99.90
12115;DHT22;6121;49.810;6.418;2024-01-06T17:10:02;5.70;99.90
12115;DHT22;6121;49.810;6.418;2024-01-06T17:12:28;5.60;99.90
12115;DHT22;6121;49.810;6.418;2024-01-06T17:14:54;5.60;99.90
12115;DHT22;6121;49.810;6.418;2024-01-06T17:17:20;5.60;99.90
12115;DHT22;6121;49.810;6.418;2024-01-06T17:19:46;5.50;99.90
12115;DHT22;6121;49.810;6.418;2024-01-06T17:22:12;5.60;99.90
12115;DHT22;6121;49.810;6.418;2024-01-06T17:24:38;5.60;99.90
12115;DHT22;6121;49.810;6.418;2024-01-06T17:29:30;5.40;99.90
12115;DHT22;6121;49.810;6.418;2024-01-06T17:31:56;5.40;99.90
12115;DHT22;6121;49.810;6.418;2024-01-06T17:36:51;5.40;99.90
12115;DHT22;6121;49.810;6.418;2024-01-06T17:44:09;5.40;99.90
12115;DHT22;6121;49.810;6.418;2024-01-06T17:46:35;5.40;99.90
12115;DHT22;6121;49.810;6.418;2024-01-06T17:51:33;5.40;99.90
12115;DHT22;6121;49.810;6.418;2024-01-06T17:54:01;5.40;99.90
12115;DHT22;6121;49.810;6.418;2024-01-06T17:56:27;5.50;99.90
12115;DHT22;6121;49.810;6.418;2024-01-06T17:58:53;5.50;99.90
12115;DHT22;6121;49.810;6.418;2024-01-06T18:03:52;5.50;99.90
12115;DHT22;6121;49.810;6.418;2024-01-06T18:06:19;5.50;99.90
12115;DHT22;6121;49.810;6.418;2024-01-06T18:08:48;5.40;99.90
12115;DHT22;6121;49.810;6.418;2024-01-06T18:11:14;5.50;99.90
12115;DHT22;6121;49.810;6.418;2024-01-06T18:13:40;5.70;99.90
12115;DHT22;6121;49.810;6.418;2024-01-06T18:18:32;5.50;99.90
12115;DHT22;6121;49.810;6.418;2024-01-06T18:21:01;5.40;99.90
12115;DHT22;6121;49.810;6.418;2024-01-06T18:25:56;5.40;99.90
12115;DHT22;6121;49.810;6.418;2024-01-06T18:28:22;5.40;99.90
12115;DHT22;6121;49.810;6.418;2024-01-06T18:30:56;5.40;99.90
12115;DHT22;6121;49.810;6.418;2024-01-06T18:33:24;5.50;99.90
12115;DHT22;6121;49.810;6.418;2024-01-06T18:38:17;5.40;99.90
12115;DHT22;6121;49.810;6.418;2024-01-06T18:43:11;5.40;99.90
12115;DHT22;6121;49.810;6.418;2024-01-06T18:45:37;5.40;99.90
12115;DHT22;6121;49.810;6.418;2024-01-06T18:48:03;5.40;99.90
12115;DHT22;6121;49.810;6.418;2024-01-06T18:50:29;5.40;99.90
12115;DHT22;6121;49.810;6.418;2024-01-06T18:57:47;5.30;99.90
12115;DHT22;6121;49.810;6.418;2024-01-06T19:00:15;5.30;99.90
12115;DHT22;6121;49.810;6.418;2024-01-06T19:02:43;5.40;99.90
12115;DHT22;6121;49.810;6.418;2024-01-06T19:05:10;5.40;99.90
12115;DHT22;6121;49.810;6.418;2024-01-06T19:07:36;5.30;99.90
12115;DHT22;6121;49.810;6.418;2024-01-06T19:12:32;5.40;99.90
12115;DHT22;6121;49.810;6.418;2024-01-06T19:14:57;5.40;99.90
12115;DHT22;6121;49.810;6.418;2024-01-06T19:17:23;5.50;99.90
12115;DHT22;6121;49.810;6.418;2024-01-06T19:19:50;5.30;99.90
12115;DHT22;6121;49.810;6.418;2024-01-06T19:22:16;5.30;99.90
12115;DHT22;6121;49.810;6.418;2024-01-06T19:24:44;5.30;99.90
12115;DHT22;6121;49.810;6.418;2024-01-06T19:29:37;5.30;99.90
12115;DHT22;6121;49.810;6.418;2024-01-06T19:32:08;5.40;99.90
12115;DHT22;6121;49.810;6.418;2024-01-06T19:34:34;5.20;99.90
12115;DHT22;6121;49.810;6.418;2024-01-06T19:37:00;5.30;99.90
12115;DHT22;6121;49.810;6.418;2024-01-06T19:39:27;5.40;99.90
12115;DHT22;6121;49.810;6.418;2024-01-06T19:41:54;5.50;99.90
12115;DHT22;6121;49.810;6.418;2024-01-06T19:44:20;5.40;99.90
12115;DHT22;6121;49.810;6.418;2024-01-06T19:46:49;5.50;99.90
12115;DHT22;6121;49.810;6.418;2024-01-06T19:49:14;5.40;99.90
12115;DHT22;6121;49.810;6.418;2024-01-06T19:51:40;5.30;99.90
12115;DHT22;6121;49.810;6.418;2024-01-06T19:56:34;5.20;99.90
12115;DHT22;6121;49.810;6.418;2024-01-06T19:58:59;5.20;99.90
12115;DHT22;6121;49.810;6.418;2024-01-06T20:01:25;5.20;99.90
12115;DHT22;6121;49.810;6.418;2024-01-06T20:03:51;5.20;99.90
12115;DHT22;6121;49.810;6.418;2024-01-06T20:06:17;5.20;99.90
12115;DHT22;6121;49.810;6.418;2024-01-06T20:08:43;5.20;99.90
12115;DHT22;6121;49.810;6.418;2024-01-06T20:13:38;5.20;99.90
12115;DHT22;6121;49.810;6.418;2024-01-06T20:16:04;5.70;99.90
12115;DHT22;6121;49.810;6.418;2024-01-06T20:18:30;5.30;99.90
12115;DHT22;6121;49.810;6.418;2024-01-06T20:20:57;5.30;99.90
12115;DHT22;6121;49.810;6.418;2024-01-06T20:23:23;5.30;99.90
12115;DHT22;6121;49.810;6.418;2024-01-06T20:25:50;5.20;99.90
12115;DHT22;6121;49.810;6.418;2024-01-06T20:28:16;5.20;99.90
12115;DHT22;6121;49.810;6.418;2024-01-06T20:30:42;5.30;99.90
12115;DHT22;6121;49.810;6.418;2024-01-06T20:33:08;5.20;99.90
12115;DHT22;6121;49.810;6.418;2024-01-06T20:38:01;5.20;99.90
12115;DHT22;6121;49.810;6.418;2024-01-06T20:42:53;5.20;99.90
12115;DHT22;6121;49.810;6.418;2024-01-06T20:45:19;5.20;99.90
12115;DHT22;6121;49.810;6.418;2024-01-06T20:52:38;5.10;99.90
12115;DHT22;6121;49.810;6.418;2024-01-06T21:00:04;5.60;99.90
12115;DHT22;6121;49.810;6.418;2024-01-06T21:02:30;5.10;99.90
12115;DHT22;6121;49.810;6.418;2024-01-06T21:04:56;5.10;99.90
12115;DHT22;6121;49.810;6.418;2024-01-06T21:07:29;5.10;99.90
12115;DHT22;6121;49.810;6.418;2024-01-06T21:09:55;5.10;99.90
12115;DHT22;6121;49.810;6.418;2024-01-06T21:12:20;5.10;99.90
12115;DHT22;6121;49.810;6.418;2024-01-06T21:14:46;5.10;99.90
12115;DHT22;6121;49.810;6.418;2024-01-06T21:17:12;5.80;99.90
12115;DHT22;6121;49.810;6.418;2024-01-06T21:19:38;5.10;99.90
12115;DHT22;6121;49.810;6.418;2024-01-06T21:22:04;5.00;99.90
12115;DHT22;6121;49.810;6.418;2024-01-06T21:24:30;5.00;99.90
12115;DHT22;6121;49.810;6.418;2024-01-06T21:26:56;5.00;99.90
12115;DHT22;6121;49.810;6.418;2024-01-06T21:29:22;5.00;99.90
12115;DHT22;6121;49.810;6.418;2024-01-06T21:31:48;5.00;99.90
12115;DHT22;6121;49.810;6.418;2024-01-06T21:36:43;4.90;99.90
12115;DHT22;6121;49.810;6.418;2024-01-06T21:39:09;4.90;99.90
12115;DHT22;6121;49.810;6.418;2024-01-06T21:41:35;4.90;99.90
12115;DHT22;6121;49.810;6.418;2024-01-06T21:44:04;4.90;99.90
12115;DHT22;6121;49.810;6.418;2024-01-06T21:51:22;4.90;99.90
12115;DHT22;6121;49.810;6.418;2024-01-06T21:56:15;4.90;99.90
12115;DHT22;6121;49.810;6.418;2024-01-06T21:58:41;4.80;99.90
12115;DHT22;6121;49.810;6.418;2024-01-06T22:03:34;5.20;99.90
12115;DHT22;6121;49.810;6.418;2024-01-06T22:05:59;4.70;99.90
12115;DHT22;6121;49.810;6.418;2024-01-06T22:08:25;4.80;99.90
12115;DHT22;6121;49.810;6.418;2024-01-06T22:10:51;4.90;99.90
12115;DHT22;6121;49.810;6.418;2024-01-06T22:13:17;4.80;99.90
12115;DHT22;6121;49.810;6.418;2024-01-06T22:15:45;4.80;99.90
12115;DHT22;6121;49.810;6.418;2024-01-06T22:18:11;4.80;99.90
12115;DHT22;6121;49.810;6.418;2024-01-06T22:20:37;4.80;99.90
12115;DHT22;6121;49.810;6.418;2024-01-06T22:23:03;4.90;99.90
12115;DHT22;6121;49.810;6.418;2024-01-06T22:25:29;4.80;99.90
12115;DHT22;6121;49.810;6.418;2024-01-06T22:27:55;4.80;99.90
12115;DHT22;6121;49.810;6.418;2024-01-06T22:30:20;5.00;99.90
12115;DHT22;6121;49.810;6.418;2024-01-06T22:32:49;4.90;99.90